LFRO/LAI METAR and TAF weather

Enter ICAO airport designator
Station Type Date Time Source
LFRO METAR 2021/04/18 03:00 UTC NOAA

LFRO 180300Z AUTO 15002KT CAVOK M00/M01 Q1026


Station Type Date Time Source
LFRO Decoded METAR 2021/04/18 03:00 UTC NOAA

Lannion / Servel, France (LFRO) 48-45N 003-28W
Apr 17, 2021 - 11:00 PM EDT / 2021.04.18 0300 UTC
Wind: from the SSE (150 degrees) at 2 MPH (2 KT):0
Visibility: greater than 7 mile(s):0
Temperature: 32 F (0 C)
Dew Point: 30 F (-1 C)
Relative Humidity: 92%
Pressure (altimeter): 30.30 in. Hg (1026 hPa)
ob: LFRO 180300Z AUTO 15002KT CAVOK M00/M01 Q1026
cycle: 3

Station Type Date Time Source
LFRO TAF 2019/05/15 19:06 UTC NOAA

TAF LFRO 151936Z 1519/1612 CNL

Example: see airport list